Time;durP1;ratioP1;P1;durP2;ratioP2;P2;SDS_P1;SDS_P2;PMS_P1;PMS_P2;Temp;Humidity;BMP_temperature;BMP_pressure;BME280_temperature;BME280_humidity;BME280_pressure;Samples;Min_cycle;Max_cycle;Signal;HPM_P1;HPM_P2
2021/03/14 00:00:00;;;;;;;1.73;0.57;;;5.40;99.90;;;;;;5069602;28;20131;-79
2021/03/14 00:02:27;;;;;;;2.05;0.50;;;5.50;99.90;;;;;;5075645;28;20075;-79
2021/03/14 00:04:55;;;;;;;1.17;0.45;;;5.60;99.90;;;;;;5076048;28;20082;-79
2021/03/14 00:07:21;;;;;;;1.63;0.50;;;5.60;99.90;;;;;;5057929;28;20164;-79
2021/03/14 00:09:48;;;;;;;1.23;0.50;;;5.70;99.90;;;;;;5062176;28;20057;-79
2021/03/14 00:12:14;;;;;;;2.08;0.60;;;5.60;99.90;;;;;;5076263;28;20052;-79
2021/03/14 00:14:41;;;;;;;1.75;0.50;;;5.60;99.90;;;;;;5079944;28;20562;-79
2021/03/14 00:17:07;;;;;;;1.75;0.50;;;5.60;99.90;;;;;;5061366;28;20060;-79
2021/03/14 00:19:35;;;;;;;2.25;0.50;;;5.70;99.90;;;;;;5061945;28;20059;-79
2021/03/14 00:22:02;;;;;;;2.15;0.50;;;5.80;99.90;;;;;;5050814;28;20770;-80
2021/03/14 00:24:29;;;;;;;1.40;0.70;;;5.80;99.90;;;;;;5057323;28;20130;-80
2021/03/14 00:26:58;;;;;;;1.90;0.68;;;5.80;99.90;;;;;;5059286;28;20132;-79
2021/03/14 00:29:25;;;;;;;2.17;0.52;;;5.80;99.90;;;;;;5079461;28;20056;-79
2021/03/14 00:31:51;;;;;;;2.92;0.70;;;5.80;99.90;;;;;;5068136;28;20144;-79
2021/03/14 00:34:18;;;;;;;3.00;0.60;;;5.80;99.90;;;;;;5063533;28;20131;-79
2021/03/14 00:36:45;;;;;;;3.85;0.68;;;5.80;99.90;;;;;;5053188;28;20215;-77
2021/03/14 00:39:12;;;;;;;1.35;0.52;;;5.80;99.90;;;;;;5062693;28;20079;-82
2021/03/14 00:41:39;;;;;;;1.63;0.60;;;5.80;99.90;;;;;;5066489;28;20051;-79
2021/03/14 00:44:06;;;;;;;2.05;0.60;;;5.90;99.90;;;;;;5065907;28;20080;-78
2021/03/14 00:46:33;;;;;;;1.98;0.70;;;5.90;99.90;;;;;;5057087;28;20123;-78
2021/03/14 00:48:59;;;;;;;1.33;0.50;;;5.80;99.90;;;;;;5060126;28;20140;-80
2021/03/14 00:51:26;;;;;;;2.00;0.60;;;5.80;99.90;;;;;;5064631;28;20127;-80
2021/03/14 00:53:52;;;;;;;2.72;0.55;;;5.90;99.90;;;;;;5052739;28;20045;-78
2021/03/14 00:56:20;;;;;;;2.90;0.70;;;5.90;99.90;;;;;;5063520;28;20439;-79
2021/03/14 00:58:47;;;;;;;2.33;0.60;;;5.90;99.90;;;;;;5066100;28;20474;-79
2021/03/14 01:01:13;;;;;;;2.80;0.63;;;6.00;99.90;;;;;;5054785;28;20128;-78
2021/03/14 01:03:40;;;;;;;1.75;0.70;;;6.10;99.90;;;;;;5052777;28;20132;-77
2021/03/14 01:06:06;;;;;;;2.65;0.63;;;6.20;99.90;;;;;;5065453;28;20152;-78
2021/03/14 01:08:34;;;;;;;2.75;0.80;;;6.10;99.90;;;;;;5049999;28;20575;-78
2021/03/14 01:11:01;;;;;;;1.42;0.50;;;6.00;99.90;;;;;;5060943;28;20156;-79
2021/03/14 01:13:28;;;;;;;1.85;0.70;;;5.90;99.90;;;;;;5054125;28;20136;-79
2021/03/14 01:15:55;;;;;;;1.58;0.45;;;5.80;99.90;;;;;;5065451;28;22000;-78
2021/03/14 01:18:21;;;;;;;2.20;0.60;;;5.70;99.90;;;;;;5055577;28;20524;-79
2021/03/14 01:20:48;;;;;;;1.25;0.47;;;5.60;99.90;;;;;;5059400;28;20053;-79
2021/03/14 01:23:15;;;;;;;0.63;0.30;;;5.40;99.90;;;;;;5050069;28;20057;-79
2021/03/14 01:25:41;;;;;;;1.52;0.30;;;5.40;99.90;;;;;;5065763;28;20136;-85
2021/03/14 01:28:08;;;;;;;0.63;0.30;;;5.30;99.90;;;;;;5053630;28;20131;-79
2021/03/14 01:30:35;;;;;;;0.70;0.30;;;5.20;99.90;;;;;;5060647;28;20079;-80
2021/03/14 01:33:02;;;;;;;0.50;0.20;;;5.20;99.90;;;;;;5060609;28;20094;-80
2021/03/14 01:35:29;;;;;;;0.98;0.30;;;5.20;99.90;;;;;;5053839;28;20157;-79
2021/03/14 01:37:55;;;;;;;0.17;0.10;;;5.20;99.90;;;;;;5065659;28;20170;-79
2021/03/14 01:40:23;;;;;;;0.73;0.20;;;5.20;99.90;;;;;;5055208;28;20055;-80
2021/03/14 01:42:50;;;;;;;0.65;0.17;;;5.20;99.90;;;;;;5059161;28;20491;-80
2021/03/14 01:45:18;;;;;;;0.38;0.20;;;5.30;99.90;;;;;;5049609;28;20055;-80
2021/03/14 01:47:48;;;;;;;0.40;0.20;;;5.20;99.90;;;;;;5066469;28;20520;-79
2021/03/14 01:50:18;;;;;;;0.40;0.20;;;5.20;99.90;;;;;;5054194;28;20131;-79
2021/03/14 01:52:46;;;;;;;0.45;0.20;;;5.20;99.90;;;;;;5060023;28;20446;-81
2021/03/14 01:55:16;;;;;;;0.77;0.30;;;5.20;99.90;;;;;;5061944;28;20132;-81
2021/03/14 01:57:43;;;;;;;0.40;0.20;;;5.30;99.90;;;;;;5052178;28;20572;-81
2021/03/14 02:00:13;;;;;;;0.90;0.30;;;5.20;99.90;;;;;;5064480;28;20561;-80
2021/03/14 02:02:41;;;;;;;0.52;0.17;;;5.20;99.90;;;;;;5057927;28;20144;-80
2021/03/14 02:05:12;;;;;;;0.20;0.20;;;5.20;99.90;;;;;;5056713;28;20149;-79
2021/03/14 02:07:42;;;;;;;0.20;0.10;;;5.20;99.90;;;;;;5065261;28;20061;-80
2021/03/14 02:10:11;;;;;;;0.90;0.30;;;5.10;99.90;;;;;;5050345;28;20053;-80
2021/03/14 02:12:46;;;;;;;1.35;0.50;;;5.10;99.90;;;;;;5057397;28;20486;-79
2021/03/14 02:15:14;;;;;;;0.95;0.30;;;5.10;99.90;;;;;;5067510;28;20147;-81
2021/03/14 02:17:42;;;;;;;0.17;0.10;;;5.10;99.90;;;;;;5052527;28;20144;-80
2021/03/14 02:20:14;;;;;;;1.85;0.30;;;5.10;99.90;;;;;;5064727;28;20214;-80
2021/03/14 02:22:44;;;;;;;0.68;0.30;;;5.10;99.90;;;;;;5057529;28;20099;-80
2021/03/14 02:25:16;;;;;;;0.98;0.47;;;5.10;99.90;;;;;;5056113;28;20787;-80
2021/03/14 02:27:44;;;;;;;0.63;0.20;;;5.10;99.90;;;;;;5065435;28;20158;-80
2021/03/14 02:30:14;;;;;;;0.68;0.20;;;5.10;99.90;;;;;;5053502;28;20388;-80
2021/03/14 02:32:41;;;;;;;2.33;0.30;;;5.00;99.90;;;;;;5060267;28;20551;-80
2021/03/14 02:35:10;;;;;;;0.43;0.20;;;5.00;99.90;;;;;;5050074;28;20113;-81
2021/03/14 02:37:37;;;;;;;0.73;0.30;;;4.90;99.90;;;;;;5062921;28;20112;-79
2021/03/14 02:40:08;;;;;;;0.52;0.20;;;4.90;99.90;;;;;;5049801;28;20574;-79
2021/03/14 02:42:36;;;;;;;0.52;0.20;;;4.80;99.90;;;;;;5061515;28;20045;-80
2021/03/14 02:45:08;;;;;;;0.65;0.20;;;4.80;99.90;;;;;;5063274;28;20144;-79
2021/03/14 02:47:35;;;;;;;1.42;0.20;;;4.80;99.90;;;;;;5072154;28;20135;-80
2021/03/14 02:50:05;;;;;;;2.22;0.40;;;4.80;99.90;;;;;;5072443;28;20080;-80
2021/03/14 02:52:32;;;;;;;1.00;0.30;;;4.80;99.90;;;;;;5063729;28;20389;-80
2021/03/14 02:55:02;;;;;;;0.60;0.30;;;4.80;99.90;;;;;;5065414;28;20132;-80
2021/03/14 02:57:29;;;;;;;0.75;0.20;;;4.80;99.90;;;;;;5056259;28;20076;-80
2021/03/14 02:59:57;;;;;;;0.63;0.15;;;4.80;99.90;;;;;;5072126;28;20135;-80
2021/03/14 03:02:26;;;;;;;0.75;0.22;;;4.80;99.90;;;;;;5061149;28;20141;-80
2021/03/14 03:04:53;;;;;;;0.20;0.20;;;4.80;99.90;;;;;;5064288;28;20128;-80
2021/03/14 03:07:22;;;;;;;0.68;0.20;;;4.80;99.90;;;;;;5055721;28;20136;-79
2021/03/14 03:09:51;;;;;;;0.22;0.15;;;4.70;99.90;;;;;;5071891;28;20058;-80
2021/03/14 03:12:21;;;;;;;0.40;0.17;;;4.70;99.90;;;;;;5060789;28;20111;-80
2021/03/14 03:14:49;;;;;;;0.32;0.20;;;4.80;99.90;;;;;;5065827;28;20045;-80
2021/03/14 03:17:17;;;;;;;0.30;0.20;;;4.70;99.90;;;;;;5069161;28;20131;-80
2021/03/14 03:19:45;;;;;;;0.38;0.20;;;4.70;99.90;;;;;;5057937;28;20469;-80
2021/03/14 03:22:12;;;;;;;0.50;0.20;;;4.70;99.90;;;;;;5070746;28;20132;-81
2021/03/14 03:24:39;;;;;;;0.20;0.20;;;4.70;99.90;;;;;;5063531;28;20111;-80
2021/03/14 03:27:07;;;;;;;0.63;0.20;;;4.70;99.90;;;;;;5063128;28;20045;-80
2021/03/14 03:29:34;;;;;;;0.80;0.25;;;4.70;99.90;;;;;;5055980;28;20467;-80
2021/03/14 03:32:01;;;;;;;0.45;0.20;;;4.80;99.90;;;;;;5058411;28;20128;-81
2021/03/14 03:34:27;;;;;;;0.77;0.40;;;4.80;99.90;;;;;;5068329;28;20136;-80
2021/03/14 03:36:55;;;;;;;0.98;0.25;;;4.80;99.90;;;;;;5063995;28;20127;-80
2021/03/14 03:39:22;;;;;;;0.50;0.20;;;4.70;99.90;;;;;;5061302;28;20132;-80
2021/03/14 03:41:53;;;;;;;0.45;0.30;;;4.70;99.90;;;;;;5074475;28;20468;-79
2021/03/14 03:44:24;;;;;;;0.55;0.20;;;4.70;99.90;;;;;;5060908;28;20136;-80
2021/03/14 03:46:56;;;;;;;0.17;0.17;;;4.70;99.90;;;;;;5063246;28;20056;-79
2021/03/14 03:49:32;;;;;;;0.40;0.20;;;4.70;99.90;;;;;;5068801;28;20128;-80
2021/03/14 03:52:01;;;;;;;0.32;0.20;;;4.70;99.90;;;;;;5065892;28;20128;-81
2021/03/14 03:54:30;;;;;;;0.10;0.10;;;4.70;99.90;;;;;;5059017;28;20087;-80
2021/03/14 03:56:58;;;;;;;0.38;0.20;;;4.60;99.90;;;;;;5071114;28;20091;-81
2021/03/14 03:59:28;;;;;;;1.00;0.30;;;4.70;99.90;;;;;;5056288;28;20139;-81
2021/03/14 04:01:56;;;;;;;0.55;0.20;;;4.70;99.90;;;;;;5054491;28;20049;-80
2021/03/14 04:04:24;;;;;;;0.52;0.10;;;4.70;99.90;;;;;;5070707;28;20471;-80
2021/03/14 04:06:53;;;;;;;1.13;0.35;;;4.70;99.90;;;;;;5055663;28;20131;-81
2021/03/14 04:09:21;;;;;;;0.28;0.20;;;4.70;99.90;;;;;;5064873;28;20048;-80
2021/03/14 04:11:49;;;;;;;0.50;0.28;;;4.80;99.90;;;;;;5060763;28;20140;-82
2021/03/14 04:14:17;;;;;;;0.52;0.25;;;4.70;99.90;;;;;;5057963;28;20566;-80
2021/03/14 04:16:44;;;;;;;0.65;0.28;;;4.70;99.90;;;;;;5067514;28;20048;-81
2021/03/14 04:19:15;;;;;;;0.38;0.20;;;4.60;99.90;;;;;;5054297;28;20494;-81
2021/03/14 04:21:42;;;;;;;0.10;0.10;;;4.60;99.90;;;;;;5062562;28;20049;-81
2021/03/14 04:24:12;;;;;;;0.30;0.22;;;4.60;99.90;;;;;;5062985;28;20084;-80
2021/03/14 04:26:43;;;;;;;0.88;0.30;;;4.60;99.90;;;;;;5056200;28;20059;-83
2021/03/14 04:29:13;;;;;;;0.63;0.30;;;4.60;99.90;;;;;;5055470;28;20068;-79
2021/03/14 04:31:44;;;;;;;1.35;0.50;;;4.60;99.90;;;;;;5070595;28;20079;-79
2021/03/14 04:34:13;;;;;;;1.38;0.40;;;4.60;99.90;;;;;;5058073;28;20064;-78
2021/03/14 04:36:41;;;;;;;0.60;0.30;;;4.60;99.90;;;;;;5067071;28;20211;-79
2021/03/14 04:39:09;;;;;;;0.98;0.40;;;4.60;99.90;;;;;;5055502;28;20126;-80
2021/03/14 04:41:39;;;;;;;1.67;0.50;;;4.60;99.90;;;;;;5070404;28;20120;-80
2021/03/14 04:44:08;;;;;;;0.98;0.40;;;4.60;99.90;;;;;;5058500;28;20498;-81
2021/03/14 04:46:36;;;;;;;0.75;0.30;;;4.50;99.90;;;;;;5066612;28;20136;-81
2021/03/14 04:49:03;;;;;;;0.50;0.30;;;4.50;99.90;;;;;;5070029;28;20059;-81
2021/03/14 04:51:33;;;;;;;1.38;0.40;;;4.50;99.90;;;;;;5064199;28;20535;-79
2021/03/14 04:54:00;;;;;;;0.88;0.40;;;4.40;99.90;;;;;;5051760;28;20566;-80
2021/03/14 04:56:28;;;;;;;1.15;0.40;;;4.40;99.90;;;;;;5051081;28;20543;-79
2021/03/14 04:58:57;;;;;;;0.75;0.40;;;4.40;99.90;;;;;;5068920;28;20322;-79
2021/03/14 05:01:26;;;;;;;0.60;0.30;;;4.30;99.90;;;;;;5067368;28;20561;-80
2021/03/14 05:03:56;;;;;;;0.50;0.32;;;4.30;99.90;;;;;;5054114;28;20052;-80
2021/03/14 05:06:23;;;;;;;0.45;0.38;;;4.30;99.90;;;;;;5054245;28;20095;-79
2021/03/14 05:08:51;;;;;;;1.50;0.40;;;4.10;99.90;;;;;;5055219;28;20132;-80
2021/03/14 05:11:20;;;;;;;1.95;0.60;;;4.30;99.90;;;;;;5067675;28;20063;-81
2021/03/14 05:13:48;;;;;;;0.85;0.40;;;4.30;99.90;;;;;;5062794;28;20550;-79
2021/03/14 05:16:17;;;;;;;0.90;0.50;;;4.30;99.90;;;;;;5068529;28;20136;-80
2021/03/14 05:18:44;;;;;;;0.77;0.40;;;4.20;99.90;;;;;;5054486;28;20132;-82
2021/03/14 05:21:12;;;;;;;0.73;0.35;;;4.10;99.90;;;;;;5058223;28;20052;-80
2021/03/14 05:23:39;;;;;;;0.95;0.40;;;4.10;99.90;;;;;;5072296;28;20477;-80
2021/03/14 05:26:12;;;;;;;0.60;0.40;;;4.10;99.90;;;;;;5053774;28;20084;-80
2021/03/14 05:28:40;;;;;;;0.40;0.25;;;4.20;99.90;;;;;;5053816;28;20057;-80
2021/03/14 05:31:31;;;;;;;0.55;0.20;;;4.10;99.90;;;;;;5057053;28;20127;-80
2021/03/14 05:34:00;;;;;;;0.30;0.20;;;4.10;99.90;;;;;;5061959;28;20118;-80
2021/03/14 05:36:28;;;;;;;0.50;0.20;;;4.00;99.90;;;;;;5061147;28;20068;-81
2021/03/14 05:38:56;;;;;;;0.68;0.20;;;4.00;99.90;;;;;;5063671;28;20135;-80
2021/03/14 05:41:22;;;;;;;0.55;0.28;;;4.00;99.90;;;;;;5058540;28;20565;-80
2021/03/14 05:43:50;;;;;;;0.47;0.20;;;3.90;99.90;;;;;;5069756;28;20131;-80
2021/03/14 05:46:17;;;;;;;0.47;0.30;;;3.90;99.90;;;;;;5058039;28;20075;-80
2021/03/14 05:48:46;;;;;;;0.40;0.30;;;3.80;99.90;;;;;;5062893;28;20068;-79
2021/03/14 05:51:21;;;;;;;1.10;0.40;;;3.90;99.90;;;;;;5065885;28;20171;-80
2021/03/14 05:53:51;;;;;;;0.75;0.40;;;3.90;99.90;;;;;;5054575;28;20137;-80
2021/03/14 05:56:20;;;;;;;0.40;0.30;;;3.80;99.90;;;;;;5069674;28;20098;-79
2021/03/14 05:58:49;;;;;;;0.40;0.40;;;3.90;99.90;;;;;;5073100;28;20112;-80
2021/03/14 06:01:18;;;;;;;0.55;0.40;;;3.90;99.90;;;;;;5072227;28;20529;-83
2021/03/14 06:03:46;;;;;;;1.02;0.32;;;3.90;99.90;;;;;;5077027;28;20044;-83
2021/03/14 06:06:14;;;;;;;0.93;0.50;;;3.70;99.90;;;;;;5065711;28;20065;-82
2021/03/14 06:08:42;;;;;;;0.88;0.50;;;3.80;99.90;;;;;;5064440;28;20052;-82
2021/03/14 06:11:11;;;;;;;0.95;0.45;;;3.80;99.90;;;;;;5063867;28;20153;-78
2021/03/14 06:13:38;;;;;;;1.08;0.50;;;3.80;99.90;;;;;;5058733;28;20049;-85
2021/03/14 06:16:06;;;;;;;1.42;0.52;;;3.90;99.90;;;;;;5060853;28;20574;-82
2021/03/14 06:18:34;;;;;;;1.13;0.60;;;3.80;99.90;;;;;;5069484;28;20127;-82
2021/03/14 06:21:04;;;;;;;1.38;0.60;;;3.80;99.90;;;;;;5071166;28;20049;-81
2021/03/14 06:23:30;;;;;;;1.58;0.57;;;3.80;99.90;;;;;;5075455;28;20525;-82
2021/03/14 06:25:58;;;;;;;1.25;0.50;;;3.90;99.90;;;;;;5089382;28;20052;-81
2021/03/14 06:28:33;;;;;;;5.88;1.15;;;3.90;99.90;;;;;;5059007;28;20137;-82
2021/03/14 06:31:16;;;;;;;1.10;0.43;;;3.90;99.90;;;;;;5065604;28;20114;-81
2021/03/14 06:33:44;;;;;;;3.97;0.80;;;4.00;99.90;;;;;;5056669;28;20064;-82
2021/03/14 06:36:16;;;;;;;2.17;0.70;;;4.00;99.90;;;;;;5058562;28;20132;-83
2021/03/14 06:38:44;;;;;;;2.17;0.80;;;4.00;99.90;;;;;;5072172;28;20450;-82
2021/03/14 06:41:14;;;;;;;2.92;1.00;;;4.00;99.90;;;;;;5088834;28;20056;-82
2021/03/14 06:43:43;;;;;;;2.63;0.70;;;4.20;99.90;;;;;;5072467;28;20561;-82
2021/03/14 06:46:26;;;;;;;3.60;0.80;;;4.10;99.90;;;;;;5079066;28;20082;-80
2021/03/14 06:49:09;;;;;;;2.10;0.70;;;4.10;99.90;;;;;;5077812;28;20098;-82
2021/03/14 06:51:39;;;;;;;3.13;0.80;;;4.10;99.90;;;;;;5058778;28;20053;-81
2021/03/14 06:54:22;;;;;;;4.63;0.77;;;4.10;99.90;;;;;;5063258;28;20119;-80
2021/03/14 06:57:05;;;;;;;3.22;0.90;;;4.20;99.90;;;;;;5082862;28;20064;-80
2021/03/14 06:59:35;;;;;;;2.05;0.90;;;4.30;99.90;;;;;;5082128;28;20274;-80
2021/03/14 07:02:05;;;;;;;2.25;1.08;;;4.30;99.90;;;;;;5082946;28;20060;-78
2021/03/14 07:04:45;;;;;;;3.88;0.90;;;4.30;99.90;;;;;;5066123;28;20110;-79
2021/03/14 07:07:24;;;;;;;4.20;1.10;;;4.40;99.90;;;;;;5068428;28;20553;-78
2021/03/14 07:09:57;;;;;;;2.83;0.80;;;4.40;99.90;;;;;;5060847;28;20079;-79
2021/03/14 07:12:28;;;;;;;2.80;1.10;;;4.40;99.90;;;;;;5063025;28;20414;-79
2021/03/14 07:14:55;;;;;;;3.72;0.90;;;4.40;99.90;;;;;;5071098;28;20084;-77
2021/03/14 07:17:30;;;;;;;2.85;1.00;;;4.50;99.90;;;;;;5060837;28;20184;-79
2021/03/14 07:20:00;;;;;;;2.85;0.90;;;4.60;99.90;;;;;;5075305;28;20060;-82
2021/03/14 07:22:28;;;;;;;4.10;1.10;;;4.60;99.90;;;;;;5075392;28;20635;-80
2021/03/14 07:24:55;;;;;;;3.85;0.90;;;4.50;99.90;;;;;;5075230;28;20080;-79
2021/03/14 07:27:25;;;;;;;2.75;1.00;;;4.70;99.90;;;;;;5075458;28;20140;-79
2021/03/14 07:29:53;;;;;;;3.33;1.10;;;4.80;99.90;;;;;;5072187;28;20076;-81
2021/03/14 07:32:20;;;;;;;5.40;0.90;;;4.80;99.90;;;;;;5086733;28;20044;-81
2021/03/14 07:34:47;;;;;;;3.33;1.17;;;4.90;99.90;;;;;;5075166;28;20131;-81
2021/03/14 07:37:15;;;;;;;3.50;1.00;;;4.90;99.90;;;;;;5087908;28;20132;-82
2021/03/14 07:39:46;;;;;;;4.25;1.05;;;4.80;99.90;;;;;;5097698;28;20048;-79
2021/03/14 07:42:13;;;;;;;5.07;1.20;;;5.00;99.90;;;;;;5095763;28;20085;-81
2021/03/14 07:44:40;;;;;;;4.80;1.15;;;5.00;99.90;;;;;;5095650;28;20135;-79
2021/03/14 07:47:07;;;;;;;3.75;0.95;;;5.00;99.70;;;;;;5071536;28;20080;-78
2021/03/14 07:49:37;;;;;;;6.40;1.20;;;5.10;99.30;;;;;;5075663;28;20044;-79
2021/03/14 07:52:07;;;;;;;3.50;1.27;;;5.10;99.50;;;;;;5075382;28;20047;-80
2021/03/14 07:54:42;;;;;;;2.65;0.90;;;5.20;99.40;;;;;;5075340;28;20587;-81
2021/03/14 07:57:11;;;;;;;4.40;1.33;;;5.30;99.60;;;;;;5075627;28;20135;-82
2021/03/14 07:59:38;;;;;;;3.50;1.00;;;5.40;99.60;;;;;;5075526;28;20131;-81
2021/03/14 08:02:27;;;;;;;4.47;1.10;;;5.50;99.70;;;;;;5075122;28;20143;-83
2021/03/14 08:04:56;;;;;;;5.45;1.10;;;5.60;99.60;;;;;;5055472;28;20128;-81
2021/03/14 08:07:45;;;;;;;5.90;1.27;;;5.70;99.60;;;;;;5054989;28;20088;-80
2021/03/14 08:10:39;;;;;;;3.97;1.02;;;5.80;99.70;;;;;;5063140;28;20574;-85
2021/03/14 08:13:08;;;;;;;3.00;0.90;;;5.90;98.50;;;;;;5096201;28;20048;-84
2021/03/14 08:15:35;;;;;;;3.20;0.90;;;5.90;98.80;;;;;;5074978;28;20150;-84
2021/03/14 08:18:04;;;;;;;3.63;1.10;;;6.00;98.10;;;;;;5075324;28;20099;-84
2021/03/14 08:20:43;;;;;;;5.45;1.23;;;6.00;97.50;;;;;;5076772;28;20049;-85
2021/03/14 08:23:12;;;;;;;4.78;1.10;;;5.90;97.50;;;;;;5075297;28;20101;-81
2021/03/14 08:25:43;;;;;;;2.85;1.10;;;5.90;97.00;;;;;;5073052;28;20055;-80
2021/03/14 08:28:31;;;;;;;4.20;0.90;;;5.80;96.40;;;;;;5074543;28;20052;-82
2021/03/14 08:31:00;;;;;;;4.53;1.10;;;5.70;97.00;;;;;;5075850;28;20055;-79
2021/03/14 08:33:45;;;;;;;2.42;0.90;;;5.60;96.80;;;;;;5074076;28;20076;-79
2021/03/14 08:36:15;;;;;;;4.55;1.25;;;5.50;97.20;;;;;;5068881;28;20044;-78
2021/03/14 08:38:48;;;;;;;3.25;0.80;;;5.50;97.80;;;;;;5078989;28;20120;-80
2021/03/14 08:41:24;;;;;;;3.05;1.00;;;5.50;97.00;;;;;;5072273;28;20068;-80
2021/03/14 08:43:54;;;;;;;3.03;0.90;;;5.50;97.20;;;;;;5086499;28;20135;-79
2021/03/14 08:46:22;;;;;;;3.08;0.80;;;5.60;96.70;;;;;;5073373;28;20041;-79
2021/03/14 08:48:48;;;;;;;2.80;1.00;;;5.60;97.20;;;;;;5074382;28;20053;-82
2021/03/14 08:51:15;;;;;;;3.97;1.05;;;5.70;97.70;;;;;;5075260;28;20131;-80
2021/03/14 08:53:42;;;;;;;3.38;0.93;;;5.80;96.50;;;;;;5082331;28;20487;-81
2021/03/14 08:56:11;;;;;;;5.90;0.90;;;5.80;97.20;;;;;;5065260;28;20123;-85
2021/03/14 08:58:38;;;;;;;4.43;0.60;;;5.90;96.90;;;;;;5071705;28;20052;-84
2021/03/14 09:01:09;;;;;;;1.58;0.63;;;6.10;97.00;;;;;;5069325;28;20431;-84
2021/03/14 09:03:43;;;;;;;3.78;0.90;;;6.10;97.10;;;;;;5055003;28;20087;-86
2021/03/14 09:06:28;;;;;;;3.05;0.75;;;6.20;97.30;;;;;;5055585;28;20482;-90
2021/03/14 09:09:00;;;;;;;1.92;0.70;;;6.30;96.10;;;;;;5070096;28;20043;-89
2021/03/14 09:11:39;;;;;;;2.42;0.60;;;6.40;96.10;;;;;;5088133;28;20052;-84
2021/03/14 09:14:34;;;;;;;2.50;0.70;;;6.50;95.70;;;;;;5086764;28;20044;-82
2021/03/14 09:17:05;;;;;;;1.50;0.50;;;6.50;95.70;;;;;;5099180;28;20457;-81
2021/03/14 09:19:44;;;;;;;2.58;0.80;;;6.50;95.30;;;;;;5089331;28;20067;-80
2021/03/14 09:22:17;;;;;;;4.53;0.88;;;6.50;95.50;;;;;;5057397;28;20550;-81
2021/03/14 09:24:46;;;;;;;2.25;0.60;;;6.50;94.30;;;;;;5052849;28;20076;-81
2021/03/14 09:27:17;;;;;;;2.72;0.77;;;6.40;94.20;;;;;;5053362;28;20053;-80
2021/03/14 09:29:49;;;;;;;3.03;0.63;;;6.40;93.60;;;;;;5053581;28;20452;-82
2021/03/14 09:32:36;;;;;;;5.85;1.00;;;6.20;95.00;;;;;;5086999;28;20055;-81
2021/03/14 09:35:16;;;;;;;2.30;0.60;;;6.10;95.10;;;;;;5093573;28;20098;-80
2021/03/14 09:37:44;;;;;;;22.67;10.00;;;6.00;96.30;;;;;;5071818;28;20059;-80
2021/03/14 09:40:33;;;;;;;5.30;0.85;;;6.00;96.80;;;;;;5073528;28;20044;-81
2021/03/14 09:43:12;;;;;;;4.68;1.02;;;6.00;96.80;;;;;;5071888;28;20090;-82
2021/03/14 09:45:44;;;;;;;3.08;0.90;;;6.10;97.00;;;;;;5070341;28;20083;-79
2021/03/14 09:48:15;;;;;;;4.13;0.80;;;6.10;97.10;;;;;;5061263;28;20059;-80
2021/03/14 09:50:47;;;;;;;3.03;0.70;;;6.10;97.10;;;;;;5053024;28;20041;-82
2021/03/14 09:53:16;;;;;;;3.72;0.60;;;6.20;95.50;;;;;;5053121;28;20135;-83
2021/03/14 09:55:45;;;;;;;1.85;0.70;;;6.30;95.40;;;;;;5057838;28;20135;-81
2021/03/14 09:58:14;;;;;;;3.63;0.63;;;6.20;95.20;;;;;;5092796;28;20129;-79
2021/03/14 10:00:44;;;;;;;3.55;0.70;;;6.20;95.30;;;;;;5080013;28;20462;-79
2021/03/14 10:03:13;;;;;;;2.92;0.73;;;6.20;95.50;;;;;;5068283;28;20045;-79
2021/03/14 10:05:44;;;;;;;4.35;0.90;;;6.40;95.00;;;;;;5070701;28;20123;-78
2021/03/14 10:08:18;;;;;;;3.75;0.57;;;6.40;94.50;;;;;;5091589;28;20714;-79
2021/03/14 10:10:46;;;;;;;3.67;0.90;;;6.40;94.60;;;;;;5074989;28;20477;-80
2021/03/14 10:13:13;;;;;;;2.58;0.75;;;6.40;95.30;;;;;;5072725;28;20124;-80
2021/03/14 10:15:42;;;;;;;3.90;0.80;;;6.50;94.30;;;;;;5063054;28;20131;-81
2021/03/14 10:18:10;;;;;;;2.13;0.70;;;6.40;94.80;;;;;;5062108;28;20136;-79
2021/03/14 10:20:38;;;;;;;2.42;0.88;;;6.50;94.40;;;;;;5074033;28;20440;-83
2021/03/14 10:23:07;;;;;;;1.88;0.50;;;6.50;94.80;;;;;;5072902;28;20406;-79
2021/03/14 10:25:39;;;;;;;4.35;0.98;;;6.50;95.10;;;;;;5073247;28;20083;-78
2021/03/14 10:28:08;;;;;;;2.60;0.63;;;6.60;94.40;;;;;;5052781;28;20081;-81
2021/03/14 10:30:36;;;;;;;2.47;0.70;;;6.60;93.50;;;;;;5061952;28;20135;-88
2021/03/14 10:33:05;;;;;;;3.13;0.68;;;6.60;94.10;;;;;;5070187;28;20127;-84
2021/03/14 10:35:32;;;;;;;4.65;0.90;;;6.60;94.30;;;;;;5073647;28;20139;-80
2021/03/14 10:38:12;;;;;;;3.42;0.80;;;6.70;94.10;;;;;;5072264;28;20110;-80
2021/03/14 10:40:39;;;;;;;2.92;0.57;;;6.80;93.30;;;;;;5072687;28;20482;-83
2021/03/14 10:43:22;;;;;;;4.53;0.98;;;6.90;91.90;;;;;;5071697;28;20059;-82
2021/03/14 10:45:51;;;;;;;1.88;0.50;;;6.90;90.50;;;;;;5073084;28;20494;-82
2021/03/14 10:48:25;;;;;;;3.22;1.08;;;6.90;89.70;;;;;;5072799;28;20068;-82
2021/03/14 10:50:59;;;;;;;2.28;0.80;;;6.90;87.40;;;;;;5073007;28;20145;-82
2021/03/14 10:53:27;;;;;;;3.17;0.73;;;6.80;88.30;;;;;;5071227;28;20056;-81
2021/03/14 10:56:04;;;;;;;2.90;0.70;;;6.90;90.50;;;;;;5072664;28;20079;-82
2021/03/14 10:58:38;;;;;;;2.47;0.70;;;7.10;87.80;;;;;;5072513;28;20053;-82
2021/03/14 11:01:07;;;;;;;4.75;0.70;;;7.10;88.60;;;;;;5072428;28;20056;-83
2021/03/14 11:03:37;;;;;;;4.53;0.93;;;7.20;87.80;;;;;;5084400;28;20054;-82
2021/03/14 11:06:16;;;;;;;4.20;0.70;;;7.30;86.60;;;;;;5077618;28;20103;-83
2021/03/14 11:08:55;;;;;;;2.38;0.50;;;7.40;87.50;;;;;;5075825;28;20080;-82
2021/03/14 11:11:26;;;;;;;3.28;0.80;;;7.40;87.20;;;;;;5075944;28;20087;-79
2021/03/14 11:13:54;;;;;;;2.05;0.68;;;7.30;83.80;;;;;;5075957;28;20474;-80
2021/03/14 11:16:25;;;;;;;2.25;0.82;;;7.30;81.80;;;;;;5075876;28;20494;-80
2021/03/14 11:19:02;;;;;;;3.70;0.73;;;7.20;82.90;;;;;;5075928;28;20136;-81
2021/03/14 11:21:29;;;;;;;3.65;0.80;;;7.10;85.00;;;;;;5076013;28;20048;-79
2021/03/14 11:23:56;;;;;;;3.65;0.73;;;7.30;83.90;;;;;;5075019;28;20147;-79
2021/03/14 11:26:22;;;;;;;2.38;0.65;;;7.20;86.10;;;;;;5075530;28;20084;-81
2021/03/14 11:28:49;;;;;;;1.58;0.57;;;7.30;86.10;;;;;;5075852;28;20151;-81
2021/03/14 11:31:16;;;;;;;2.80;0.70;;;7.30;84.60;;;;;;5075749;28;20447;-83
2021/03/14 11:33:42;;;;;;;2.28;0.65;;;7.40;84.80;;;;;;5075781;28;20111;-81
2021/03/14 11:36:10;;;;;;;3.08;0.60;;;7.40;83.30;;;;;;5075101;28;20087;-80
2021/03/14 11:38:36;;;;;;;10.82;3.67;;;7.40;83.80;;;;;;5075062;28;20136;-81
2021/03/14 11:41:03;;;;;;;2.72;0.73;;;7.40;85.00;;;;;;5075402;28;20076;-78
2021/03/14 11:43:30;;;;;;;1.98;0.60;;;7.50;82.90;;;;;;5075147;28;20113;-81
2021/03/14 11:45:56;;;;;;;2.53;0.60;;;7.50;81.20;;;;;;5075124;28;20132;-80
2021/03/14 11:48:23;;;;;;;5.32;1.08;;;7.40;79.50;;;;;;5075139;28;20135;-80
2021/03/14 11:50:50;;;;;;;3.35;0.93;;;7.50;77.40;;;;;;5075407;28;20135;-81
2021/03/14 11:53:17;;;;;;;3.63;0.95;;;7.60;76.40;;;;;;5075122;28;20083;-78
2021/03/14 11:55:44;;;;;;;4.22;0.70;;;7.50;77.80;;;;;;5074351;28;20536;-80
2021/03/14 11:58:10;;;;;;;4.20;1.02;;;7.50;79.60;;;;;;5075492;28;20078;-80
2021/03/14 12:00:37;;;;;;;5.95;1.00;;;7.60;77.50;;;;;;5074927;28;20136;-82
2021/03/14 12:03:04;;;;;;;4.28;0.80;;;7.70;77.70;;;;;;5074774;28;20154;-80
2021/03/14 12:05:31;;;;;;;2.60;0.70;;;7.70;78.80;;;;;;5065268;28;20505;-79
2021/03/14 12:07:58;;;;;;;3.53;0.70;;;7.80;80.70;;;;;;5066436;28;20127;-82
2021/03/14 12:10:25;;;;;;;3.50;0.70;;;8.00;78.40;;;;;;5075537;28;20139;-85
2021/03/14 12:12:52;;;;;;;2.55;0.80;;;8.20;75.80;;;;;;5075201;28;20091;-81
2021/03/14 12:15:19;;;;;;;3.05;0.75;;;8.40;74.10;;;;;;5074121;28;20040;-80
2021/03/14 12:17:46;;;;;;;2.53;0.60;;;8.40;75.30;;;;;;5076935;28;20124;-82
2021/03/14 12:20:13;;;;;;;3.63;0.80;;;8.50;76.30;;;;;;5083082;28;20048;-80
2021/03/14 12:22:40;;;;;;;4.03;1.05;;;8.40;75.10;;;;;;5084165;28;20044;-80
2021/03/14 12:25:08;;;;;;;4.50;0.80;;;8.10;74.40;;;;;;5086263;28;20067;-80
2021/03/14 12:27:35;;;;;;;4.45;0.80;;;8.10;76.40;;;;;;5098855;28;20048;-80
2021/03/14 12:30:04;;;;;;;3.15;0.88;;;8.20;77.30;;;;;;5095186;28;20131;-79
2021/03/14 12:32:31;;;;;;;3.72;0.70;;;8.00;79.10;;;;;;5080616;28;20049;-80
2021/03/14 12:34:58;;;;;;;3.60;0.80;;;8.00;79.40;;;;;;5074038;28;20139;-78
2021/03/14 12:37:24;;;;;;;5.40;0.82;;;8.00;80.10;;;;;;5074096;28;20588;-81
2021/03/14 12:39:51;;;;;;;4.05;0.90;;;8.00;81.40;;;;;;5074083;28;20137;-80
2021/03/14 12:42:18;;;;;;;4.25;0.80;;;7.90;83.80;;;;;;5074126;28;20131;-78
2021/03/14 12:44:45;;;;;;;3.53;0.70;;;7.80;86.20;;;;;;5073159;28;20040;-80
2021/03/14 12:47:12;;;;;;;3.38;0.77;;;7.70;88.80;;;;;;5073756;28;20049;-80
2021/03/14 12:49:39;;;;;;;3.28;0.63;;;7.50;90.60;;;;;;5073774;28;20136;-79
2021/03/14 12:52:06;;;;;;;3.97;0.80;;;7.30;92.00;;;;;;5073476;28;20498;-79
2021/03/14 12:54:33;;;;;;;3.30;0.70;;;7.20;92.90;;;;;;5074009;28;20139;-78
2021/03/14 12:56:59;;;;;;;3.05;1.08;;;7.10;93.30;;;;;;5071982;28;20160;-84
2021/03/14 12:59:26;;;;;;;4.80;1.02;;;7.00;94.50;;;;;;5073004;28;20056;-84
2021/03/14 13:01:53;;;;;;;3.38;1.02;;;6.80;94.80;;;;;;5074597;28;20132;-83
2021/03/14 13:04:21;;;;;;;4.68;0.90;;;6.80;95.10;;;;;;5074105;28;20048;-85
2021/03/14 13:06:49;;;;;;;4.13;1.00;;;6.70;95.20;;;;;;5074264;28;20137;-84
2021/03/14 13:09:16;;;;;;;3.35;1.20;;;6.60;96.00;;;;;;5054646;28;20056;-83